Terminal Aerodrome Forecast
Issued by NWS Newport/Morehead City, NC

Home | Current Version | Previous Version | Text Only | Print | Product List | Glossary On
Versions: 1 2 3 4 5 6 7 8 9 10 11 12 13 14 15 16
561
FTUS42 KMHX 131738
TAFEWN
TAF
KEWN 131738Z 1318/1418 30009KT P6SM BKN020
     FM132000 34009KT P6SM BKN020
      TEMPO 1320/1324 BKN035
     FM140000 35009KT P6SM BKN035
     FM140300 36009KT P6SM SCT040
     FM140700 01010KT P6SM SCT250=

USA.gov is the U.S. government's official web portal to all federal, state and local government web resources and services.